<?xml version="1.0" encoding="UTF-8" standalone="no" ?>
<gpx xmlns="http://www.topografix.com/GPX/1/1" xmlns:xsi="http://www.w3.org/2001/XMLSchema-instance" xsi:schemaLocation="http://www.topografix.com/GPX/1/1 http://www.topografix.com/GPX/1/1/gpx.xsd" version="1.1" creator="VisuGPX - https://www.visugpx.com">
  <metadata>
    <name>Rando loc de la cisba - St Grégoire - colde palassy</name>
    <desc><![CDATA[rando de 15 kms pas trop difficile]]></desc>
  </metadata>
  <trk>
    <name><![CDATA[20/09/12 14:15:12]]></name>
    <trkseg>
      <trkpt lat="44.32693" lon="3.0454">
        <ele>675</ele>
        <time>2012-09-20T12:15:12Z</time>
      </trkpt>
      <trkpt lat="44.32693" lon="3.04543">
        <ele>674</ele>
        <time>2012-09-20T12:15:32Z</time>
      </trkpt>
      <trkpt lat="44.32694" lon="3.04543">
        <ele>676</ele>
        <time>2012-09-20T12:15:39Z</time>
      </trkpt>
      <trkpt lat="44.32679" lon="3.04516">
        <ele>674</ele>
        <time>2012-09-20T12:18:16Z</time>
      </trkpt>
      <trkpt lat="44.32671" lon="3.04578">
        <ele>681</ele>
        <time>2012-09-20T12:29:19Z</time>
      </trkpt>
      <trkpt lat="44.32632" lon="3.04545">
        <ele>674</ele>
        <time>2012-09-20T12:30:16Z</time>
      </trkpt>
      <trkpt lat="44.32586" lon="3.04547">
        <ele>680</ele>
        <time>2012-09-20T12:30:48Z</time>
      </trkpt>
      <trkpt lat="44.32555" lon="3.04501">
        <ele>677</ele>
        <time>2012-09-20T12:31:40Z</time>
      </trkpt>
      <trkpt lat="44.32549" lon="3.04433">
        <ele>674</ele>
        <time>2012-09-20T12:32:32Z</time>
      </trkpt>
      <trkpt lat="44.32514" lon="3.04389">
        <ele>681</ele>
        <time>2012-09-20T12:33:19Z</time>
      </trkpt>
      <trkpt lat="44.32469" lon="3.044">
        <ele>676</ele>
        <time>2012-09-20T12:34:31Z</time>
      </trkpt>
      <trkpt lat="44.32423" lon="3.04414">
        <ele>676</ele>
        <time>2012-09-20T12:35:10Z</time>
      </trkpt>
      <trkpt lat="44.32377" lon="3.04405">
        <ele>685</ele>
        <time>2012-09-20T12:35:55Z</time>
      </trkpt>
      <trkpt lat="44.3237" lon="3.04341">
        <ele>690</ele>
        <time>2012-09-20T12:36:31Z</time>
      </trkpt>
      <trkpt lat="44.32368" lon="3.04278">
        <ele>688</ele>
        <time>2012-09-20T12:37:05Z</time>
      </trkpt>
      <trkpt lat="44.32365" lon="3.04215">
        <ele>691</ele>
        <time>2012-09-20T12:37:40Z</time>
      </trkpt>
      <trkpt lat="44.32351" lon="3.04154">
        <ele>691</ele>
        <time>2012-09-20T12:38:15Z</time>
      </trkpt>
      <trkpt lat="44.32347" lon="3.0409">
        <ele>687</ele>
        <time>2012-09-20T12:38:43Z</time>
      </trkpt>
      <trkpt lat="44.3234" lon="3.04027">
        <ele>687</ele>
        <time>2012-09-20T12:39:20Z</time>
      </trkpt>
      <trkpt lat="44.32352" lon="3.03965">
        <ele>686</ele>
        <time>2012-09-20T12:39:50Z</time>
      </trkpt>
      <trkpt lat="44.32345" lon="3.03901">
        <ele>681</ele>
        <time>2012-09-20T12:40:24Z</time>
      </trkpt>
      <trkpt lat="44.32343" lon="3.03833">
        <ele>684</ele>
        <time>2012-09-20T12:40:58Z</time>
      </trkpt>
      <trkpt lat="44.32343" lon="3.03769">
        <ele>693</ele>
        <time>2012-09-20T12:41:35Z</time>
      </trkpt>
      <trkpt lat="44.32342" lon="3.03701">
        <ele>691</ele>
        <time>2012-09-20T12:42:08Z</time>
      </trkpt>
      <trkpt lat="44.32352" lon="3.03637">
        <ele>694</ele>
        <time>2012-09-20T12:42:47Z</time>
      </trkpt>
      <trkpt lat="44.32348" lon="3.03574">
        <ele>697</ele>
        <time>2012-09-20T12:43:20Z</time>
      </trkpt>
      <trkpt lat="44.32357" lon="3.03511">
        <ele>696</ele>
        <time>2012-09-20T12:43:56Z</time>
      </trkpt>
      <trkpt lat="44.32354" lon="3.03447">
        <ele>698</ele>
        <time>2012-09-20T12:44:30Z</time>
      </trkpt>
      <trkpt lat="44.32355" lon="3.03384">
        <ele>701</ele>
        <time>2012-09-20T12:45:05Z</time>
      </trkpt>
      <trkpt lat="44.32349" lon="3.0332">
        <ele>700</ele>
        <time>2012-09-20T12:45:41Z</time>
      </trkpt>
      <trkpt lat="44.32333" lon="3.03261">
        <ele>694</ele>
        <time>2012-09-20T12:46:14Z</time>
      </trkpt>
      <trkpt lat="44.32309" lon="3.03207">
        <ele>695</ele>
        <time>2012-09-20T12:46:56Z</time>
      </trkpt>
      <trkpt lat="44.32287" lon="3.03152">
        <ele>707</ele>
        <time>2012-09-20T12:47:39Z</time>
      </trkpt>
      <trkpt lat="44.32274" lon="3.0309">
        <ele>695</ele>
        <time>2012-09-20T12:48:08Z</time>
      </trkpt>
      <trkpt lat="44.32263" lon="3.03029">
        <ele>697</ele>
        <time>2012-09-20T12:48:39Z</time>
      </trkpt>
      <trkpt lat="44.32247" lon="3.02968">
        <ele>695</ele>
        <time>2012-09-20T12:49:09Z</time>
      </trkpt>
      <trkpt lat="44.32246" lon="3.02905">
        <ele>706</ele>
        <time>2012-09-20T12:49:45Z</time>
      </trkpt>
      <trkpt lat="44.32242" lon="3.02838">
        <ele>706</ele>
        <time>2012-09-20T12:50:23Z</time>
      </trkpt>
      <trkpt lat="44.3224" lon="3.02774">
        <ele>707</ele>
        <time>2012-09-20T12:51:02Z</time>
      </trkpt>
      <trkpt lat="44.32202" lon="3.0274">
        <ele>715</ele>
        <time>2012-09-20T12:51:49Z</time>
      </trkpt>
      <trkpt lat="44.32174" lon="3.0269">
        <ele>722</ele>
        <time>2012-09-20T12:52:39Z</time>
      </trkpt>
      <trkpt lat="44.3215" lon="3.02632">
        <ele>723</ele>
        <time>2012-09-20T12:53:14Z</time>
      </trkpt>
      <trkpt lat="44.32123" lon="3.02582">
        <ele>731</ele>
        <time>2012-09-20T12:53:42Z</time>
      </trkpt>
      <trkpt lat="44.32111" lon="3.0252">
        <ele>730</ele>
        <time>2012-09-20T12:54:18Z</time>
      </trkpt>
      <trkpt lat="44.32099" lon="3.02458">
        <ele>732</ele>
        <time>2012-09-20T12:54:52Z</time>
      </trkpt>
      <trkpt lat="44.32086" lon="3.02398">
        <ele>727</ele>
        <time>2012-09-20T12:55:37Z</time>
      </trkpt>
      <trkpt lat="44.32064" lon="3.02342">
        <ele>735</ele>
        <time>2012-09-20T12:57:21Z</time>
      </trkpt>
      <trkpt lat="44.32048" lon="3.02282">
        <ele>735</ele>
        <time>2012-09-20T12:57:59Z</time>
      </trkpt>
      <trkpt lat="44.32095" lon="3.02265">
        <ele>738</ele>
        <time>2012-09-20T12:58:38Z</time>
      </trkpt>
      <trkpt lat="44.3214" lon="3.02278">
        <ele>745</ele>
        <time>2012-09-20T12:59:18Z</time>
      </trkpt>
      <trkpt lat="44.32176" lon="3.0224">
        <ele>750</ele>
        <time>2012-09-20T13:00:32Z</time>
      </trkpt>
      <trkpt lat="44.3221" lon="3.022">
        <ele>752</ele>
        <time>2012-09-20T13:01:41Z</time>
      </trkpt>
      <trkpt lat="44.32241" lon="3.02153">
        <ele>751</ele>
        <time>2012-09-20T13:03:40Z</time>
      </trkpt>
      <trkpt lat="44.32217" lon="3.021">
        <ele>763</ele>
        <time>2012-09-20T13:04:33Z</time>
      </trkpt>
      <trkpt lat="44.32218" lon="3.02037">
        <ele>784</ele>
        <time>2012-09-20T13:06:18Z</time>
      </trkpt>
      <trkpt lat="44.32241" lon="3.01983">
        <ele>816</ele>
        <time>2012-09-20T13:08:54Z</time>
      </trkpt>
      <trkpt lat="44.32238" lon="3.0192">
        <ele>806</ele>
        <time>2012-09-20T13:14:16Z</time>
      </trkpt>
      <trkpt lat="44.32245" lon="3.01857">
        <ele>785</ele>
        <time>2012-09-20T13:15:13Z</time>
      </trkpt>
      <trkpt lat="44.32278" lon="3.01814">
        <ele>790</ele>
        <time>2012-09-20T13:16:03Z</time>
      </trkpt>
      <trkpt lat="44.32313" lon="3.01773">
        <ele>777</ele>
        <time>2012-09-20T13:16:50Z</time>
      </trkpt>
      <trkpt lat="44.32341" lon="3.01721">
        <ele>758</ele>
        <time>2012-09-20T13:17:32Z</time>
      </trkpt>
      <trkpt lat="44.32362" lon="3.01663">
        <ele>768</ele>
        <time>2012-09-20T13:18:17Z</time>
      </trkpt>
      <trkpt lat="44.32376" lon="3.01602">
        <ele>803</ele>
        <time>2012-09-20T13:19:21Z</time>
      </trkpt>
      <trkpt lat="44.32406" lon="3.01555">
        <ele>793</ele>
        <time>2012-09-20T13:20:06Z</time>
      </trkpt>
      <trkpt lat="44.32392" lon="3.01495">
        <ele>782</ele>
        <time>2012-09-20T13:20:48Z</time>
      </trkpt>
      <trkpt lat="44.32397" lon="3.01432">
        <ele>772</ele>
        <time>2012-09-20T13:22:14Z</time>
      </trkpt>
      <trkpt lat="44.32384" lon="3.01372">
        <ele>760</ele>
        <time>2012-09-20T13:23:19Z</time>
      </trkpt>
      <trkpt lat="44.32352" lon="3.01327">
        <ele>732</ele>
        <time>2012-09-20T13:24:50Z</time>
      </trkpt>
      <trkpt lat="44.32324" lon="3.01275">
        <ele>715</ele>
        <time>2012-09-20T13:26:09Z</time>
      </trkpt>
      <trkpt lat="44.32346" lon="3.01219">
        <ele>727</ele>
        <time>2012-09-20T13:28:00Z</time>
      </trkpt>
      <trkpt lat="44.3232" lon="3.01166">
        <ele>720</ele>
        <time>2012-09-20T13:36:01Z</time>
      </trkpt>
      <trkpt lat="44.32322" lon="3.01103">
        <ele>705</ele>
        <time>2012-09-20T13:39:18Z</time>
      </trkpt>
      <trkpt lat="44.32283" lon="3.01065">
        <ele>713</ele>
        <time>2012-09-20T13:39:54Z</time>
      </trkpt>
      <trkpt lat="44.32247" lon="3.01027">
        <ele>686</ele>
        <time>2012-09-20T13:41:33Z</time>
      </trkpt>
      <trkpt lat="44.32217" lon="3.0098">
        <ele>675</ele>
        <time>2012-09-20T13:42:11Z</time>
      </trkpt>
      <trkpt lat="44.32184" lon="3.00936">
        <ele>669</ele>
        <time>2012-09-20T13:42:53Z</time>
      </trkpt>
      <trkpt lat="44.32157" lon="3.00883">
        <ele>665</ele>
        <time>2012-09-20T13:43:34Z</time>
      </trkpt>
      <trkpt lat="44.3212" lon="3.00846">
        <ele>651</ele>
        <time>2012-09-20T13:44:05Z</time>
      </trkpt>
      <trkpt lat="44.32092" lon="3.00797">
        <ele>649</ele>
        <time>2012-09-20T13:44:43Z</time>
      </trkpt>
      <trkpt lat="44.32074" lon="3.00739">
        <ele>654</ele>
        <time>2012-09-20T13:45:13Z</time>
      </trkpt>
      <trkpt lat="44.32055" lon="3.0068">
        <ele>658</ele>
        <time>2012-09-20T13:45:49Z</time>
      </trkpt>
      <trkpt lat="44.32019" lon="3.00641">
        <ele>655</ele>
        <time>2012-09-20T13:46:29Z</time>
      </trkpt>
      <trkpt lat="44.31986" lon="3.00598">
        <ele>647</ele>
        <time>2012-09-20T13:47:10Z</time>
      </trkpt>
      <trkpt lat="44.31941" lon="3.00591">
        <ele>643</ele>
        <time>2012-09-20T13:47:44Z</time>
      </trkpt>
      <trkpt lat="44.31896" lon="3.00572">
        <ele>650</ele>
        <time>2012-09-20T13:48:18Z</time>
      </trkpt>
      <trkpt lat="44.3185" lon="3.00577">
        <ele>656</ele>
        <time>2012-09-20T13:49:15Z</time>
      </trkpt>
      <trkpt lat="44.31804" lon="3.00581">
        <ele>662</ele>
        <time>2012-09-20T13:49:54Z</time>
      </trkpt>
      <trkpt lat="44.31758" lon="3.00583">
        <ele>665</ele>
        <time>2012-09-20T13:50:24Z</time>
      </trkpt>
      <trkpt lat="44.31713" lon="3.00589">
        <ele>663</ele>
        <time>2012-09-20T13:50:55Z</time>
      </trkpt>
      <trkpt lat="44.31667" lon="3.00595">
        <ele>665</ele>
        <time>2012-09-20T13:51:31Z</time>
      </trkpt>
      <trkpt lat="44.31621" lon="3.00596">
        <ele>668</ele>
        <time>2012-09-20T13:52:03Z</time>
      </trkpt>
      <trkpt lat="44.31574" lon="3.00586">
        <ele>663</ele>
        <time>2012-09-20T13:52:38Z</time>
      </trkpt>
      <trkpt lat="44.31529" lon="3.0058">
        <ele>663</ele>
        <time>2012-09-20T13:53:11Z</time>
      </trkpt>
      <trkpt lat="44.31484" lon="3.00568">
        <ele>671</ele>
        <time>2012-09-20T13:53:46Z</time>
      </trkpt>
      <trkpt lat="44.31438" lon="3.00563">
        <ele>671</ele>
        <time>2012-09-20T13:54:17Z</time>
      </trkpt>
      <trkpt lat="44.31393" lon="3.00561">
        <ele>669</ele>
        <time>2012-09-20T13:55:01Z</time>
      </trkpt>
      <trkpt lat="44.31348" lon="3.00578">
        <ele>678</ele>
        <time>2012-09-20T13:55:40Z</time>
      </trkpt>
      <trkpt lat="44.31303" lon="3.00568">
        <ele>678</ele>
        <time>2012-09-20T13:56:15Z</time>
      </trkpt>
      <trkpt lat="44.31257" lon="3.00562">
        <ele>673</ele>
        <time>2012-09-20T13:56:56Z</time>
      </trkpt>
      <trkpt lat="44.31214" lon="3.00542">
        <ele>673</ele>
        <time>2012-09-20T13:57:30Z</time>
      </trkpt>
      <trkpt lat="44.31168" lon="3.00532">
        <ele>675</ele>
        <time>2012-09-20T13:58:08Z</time>
      </trkpt>
      <trkpt lat="44.31127" lon="3.00503">
        <ele>670</ele>
        <time>2012-09-20T13:58:45Z</time>
      </trkpt>
      <trkpt lat="44.31083" lon="3.00481">
        <ele>676</ele>
        <time>2012-09-20T13:59:22Z</time>
      </trkpt>
      <trkpt lat="44.31039" lon="3.00465">
        <ele>680</ele>
        <time>2012-09-20T13:59:56Z</time>
      </trkpt>
      <trkpt lat="44.30997" lon="3.00442">
        <ele>678</ele>
        <time>2012-09-20T14:00:27Z</time>
      </trkpt>
      <trkpt lat="44.30962" lon="3.00402">
        <ele>682</ele>
        <time>2012-09-20T14:01:01Z</time>
      </trkpt>
      <trkpt lat="44.30925" lon="3.00364">
        <ele>686</ele>
        <time>2012-09-20T14:01:38Z</time>
      </trkpt>
      <trkpt lat="44.30888" lon="3.00327">
        <ele>682</ele>
        <time>2012-09-20T14:02:34Z</time>
      </trkpt>
      <trkpt lat="44.30855" lon="3.00283">
        <ele>686</ele>
        <time>2012-09-20T14:03:14Z</time>
      </trkpt>
      <trkpt lat="44.30829" lon="3.00232">
        <ele>679</ele>
        <time>2012-09-20T14:03:52Z</time>
      </trkpt>
      <trkpt lat="44.30783" lon="3.00229">
        <ele>680</ele>
        <time>2012-09-20T14:05:42Z</time>
      </trkpt>
      <trkpt lat="44.30831" lon="3.00224">
        <ele>680</ele>
        <time>2012-09-20T14:06:25Z</time>
      </trkpt>
      <trkpt lat="44.30805" lon="3.00171">
        <ele>689</ele>
        <time>2012-09-20T14:08:17Z</time>
      </trkpt>
      <trkpt lat="44.30778" lon="3.0012">
        <ele>690</ele>
        <time>2012-09-20T14:08:58Z</time>
      </trkpt>
      <trkpt lat="44.30739" lon="3.00087">
        <ele>691</ele>
        <time>2012-09-20T14:09:30Z</time>
      </trkpt>
      <trkpt lat="44.30693" lon="3.00086">
        <ele>693</ele>
        <time>2012-09-20T14:10:19Z</time>
      </trkpt>
      <trkpt lat="44.30651" lon="3.0006">
        <ele>704</ele>
        <time>2012-09-20T14:10:53Z</time>
      </trkpt>
      <trkpt lat="44.3061" lon="3.00086">
        <ele>708</ele>
        <time>2012-09-20T14:12:05Z</time>
      </trkpt>
      <trkpt lat="44.30568" lon="3.00108">
        <ele>716</ele>
        <time>2012-09-20T14:12:55Z</time>
      </trkpt>
      <trkpt lat="44.30527" lon="3.00136">
        <ele>729</ele>
        <time>2012-09-20T14:13:48Z</time>
      </trkpt>
      <trkpt lat="44.30485" lon="3.00158">
        <ele>744</ele>
        <time>2012-09-20T14:14:51Z</time>
      </trkpt>
      <trkpt lat="44.30443" lon="3.00183">
        <ele>754</ele>
        <time>2012-09-20T14:15:49Z</time>
      </trkpt>
      <trkpt lat="44.30418" lon="3.00235">
        <ele>761</ele>
        <time>2012-09-20T14:17:10Z</time>
      </trkpt>
      <trkpt lat="44.30383" lon="3.00276">
        <ele>782</ele>
        <time>2012-09-20T14:18:16Z</time>
      </trkpt>
      <trkpt lat="44.30369" lon="3.00336">
        <ele>793</ele>
        <time>2012-09-20T14:19:35Z</time>
      </trkpt>
      <trkpt lat="44.30349" lon="3.00395">
        <ele>807</ele>
        <time>2012-09-20T14:20:47Z</time>
      </trkpt>
      <trkpt lat="44.30338" lon="3.00456">
        <ele>818</ele>
        <time>2012-09-20T14:22:40Z</time>
      </trkpt>
      <trkpt lat="44.30308" lon="3.00502">
        <ele>821</ele>
        <time>2012-09-20T14:30:08Z</time>
      </trkpt>
      <trkpt lat="44.30283" lon="3.00556">
        <ele>818</ele>
        <time>2012-09-20T14:30:42Z</time>
      </trkpt>
      <trkpt lat="44.30256" lon="3.00608">
        <ele>816</ele>
        <time>2012-09-20T14:31:20Z</time>
      </trkpt>
      <trkpt lat="44.30216" lon="3.00578">
        <ele>832</ele>
        <time>2012-09-20T14:32:25Z</time>
      </trkpt>
      <trkpt lat="44.30181" lon="3.00538">
        <ele>827</ele>
        <time>2012-09-20T14:33:03Z</time>
      </trkpt>
      <trkpt lat="44.30136" lon="3.00532">
        <ele>837</ele>
        <time>2012-09-20T14:33:37Z</time>
      </trkpt>
      <trkpt lat="44.3009" lon="3.00538">
        <ele>839</ele>
        <time>2012-09-20T14:34:21Z</time>
      </trkpt>
      <trkpt lat="44.30046" lon="3.00549">
        <ele>843</ele>
        <time>2012-09-20T14:34:57Z</time>
      </trkpt>
      <trkpt lat="44.29999" lon="3.00547">
        <ele>846</ele>
        <time>2012-09-20T14:35:35Z</time>
      </trkpt>
      <trkpt lat="44.29953" lon="3.00555">
        <ele>838</ele>
        <time>2012-09-20T14:36:04Z</time>
      </trkpt>
      <trkpt lat="44.29908" lon="3.00562">
        <ele>841</ele>
        <time>2012-09-20T14:36:40Z</time>
      </trkpt>
      <trkpt lat="44.29864" lon="3.00577">
        <ele>847</ele>
        <time>2012-09-20T14:37:13Z</time>
      </trkpt>
      <trkpt lat="44.29819" lon="3.00573">
        <ele>839</ele>
        <time>2012-09-20T14:37:42Z</time>
      </trkpt>
      <trkpt lat="44.29774" lon="3.00569">
        <ele>842</ele>
        <time>2012-09-20T14:38:24Z</time>
      </trkpt>
      <trkpt lat="44.2973" lon="3.00546">
        <ele>854</ele>
        <time>2012-09-20T14:38:43Z</time>
      </trkpt>
      <trkpt lat="44.29693" lon="3.00583">
        <ele>854</ele>
        <time>2012-09-20T14:39:32Z</time>
      </trkpt>
      <trkpt lat="44.29653" lon="3.00612">
        <ele>860</ele>
        <time>2012-09-20T14:40:05Z</time>
      </trkpt>
      <trkpt lat="44.2961" lon="3.00633">
        <ele>868</ele>
        <time>2012-09-20T14:40:41Z</time>
      </trkpt>
      <trkpt lat="44.29568" lon="3.00658">
        <ele>875</ele>
        <time>2012-09-20T14:41:15Z</time>
      </trkpt>
      <trkpt lat="44.29523" lon="3.00664">
        <ele>874</ele>
        <time>2012-09-20T14:42:46Z</time>
      </trkpt>
      <trkpt lat="44.29481" lon="3.0064">
        <ele>869</ele>
        <time>2012-09-20T14:43:15Z</time>
      </trkpt>
      <trkpt lat="44.29446" lon="3.00599">
        <ele>873</ele>
        <time>2012-09-20T14:43:48Z</time>
      </trkpt>
      <trkpt lat="44.29416" lon="3.00549">
        <ele>871</ele>
        <time>2012-09-20T14:44:23Z</time>
      </trkpt>
      <trkpt lat="44.29371" lon="3.00542">
        <ele>870</ele>
        <time>2012-09-20T14:45:28Z</time>
      </trkpt>
      <trkpt lat="44.29327" lon="3.00552">
        <ele>881</ele>
        <time>2012-09-20T14:46:13Z</time>
      </trkpt>
      <trkpt lat="44.2929" lon="3.0059">
        <ele>881</ele>
        <time>2012-09-20T14:47:00Z</time>
      </trkpt>
      <trkpt lat="44.29243" lon="3.00603">
        <ele>893</ele>
        <time>2012-09-20T14:47:41Z</time>
      </trkpt>
      <trkpt lat="44.29248" lon="3.00667">
        <ele>893</ele>
        <time>2012-09-20T14:48:21Z</time>
      </trkpt>
      <trkpt lat="44.29249" lon="3.0073">
        <ele>897</ele>
        <time>2012-09-20T14:48:58Z</time>
      </trkpt>
      <trkpt lat="44.29241" lon="3.00793">
        <ele>903</ele>
        <time>2012-09-20T14:49:36Z</time>
      </trkpt>
      <trkpt lat="44.29212" lon="3.00842">
        <ele>911</ele>
        <time>2012-09-20T14:50:12Z</time>
      </trkpt>
      <trkpt lat="44.29208" lon="3.00904">
        <ele>915</ele>
        <time>2012-09-20T14:53:10Z</time>
      </trkpt>
      <trkpt lat="44.2925" lon="3.00928">
        <ele>906</ele>
        <time>2012-09-20T14:55:08Z</time>
      </trkpt>
      <trkpt lat="44.29292" lon="3.00907">
        <ele>902</ele>
        <time>2012-09-20T14:56:12Z</time>
      </trkpt>
      <trkpt lat="44.29338" lon="3.009">
        <ele>894</ele>
        <time>2012-09-20T14:57:19Z</time>
      </trkpt>
      <trkpt lat="44.29383" lon="3.00919">
        <ele>877</ele>
        <time>2012-09-20T14:58:03Z</time>
      </trkpt>
      <trkpt lat="44.29426" lon="3.00942">
        <ele>862</ele>
        <time>2012-09-20T14:58:38Z</time>
      </trkpt>
      <trkpt lat="44.29462" lon="3.0098">
        <ele>856</ele>
        <time>2012-09-20T14:59:16Z</time>
      </trkpt>
      <trkpt lat="44.29481" lon="3.01039">
        <ele>850</ele>
        <time>2012-09-20T15:00:00Z</time>
      </trkpt>
      <trkpt lat="44.29496" lon="3.01099">
        <ele>844</ele>
        <time>2012-09-20T15:00:49Z</time>
      </trkpt>
      <trkpt lat="44.29492" lon="3.01166">
        <ele>842</ele>
        <time>2012-09-20T15:01:32Z</time>
      </trkpt>
      <trkpt lat="44.29493" lon="3.01229">
        <ele>841</ele>
        <time>2012-09-20T15:02:16Z</time>
      </trkpt>
      <trkpt lat="44.29516" lon="3.01285">
        <ele>833</ele>
        <time>2012-09-20T15:02:59Z</time>
      </trkpt>
      <trkpt lat="44.29531" lon="3.01345">
        <ele>828</ele>
        <time>2012-09-20T15:03:34Z</time>
      </trkpt>
      <trkpt lat="44.29576" lon="3.01333">
        <ele>825</ele>
        <time>2012-09-20T15:05:28Z</time>
      </trkpt>
      <trkpt lat="44.29621" lon="3.01322">
        <ele>806</ele>
        <time>2012-09-20T15:07:31Z</time>
      </trkpt>
      <trkpt lat="44.29667" lon="3.01329">
        <ele>787</ele>
        <time>2012-09-20T15:08:13Z</time>
      </trkpt>
      <trkpt lat="44.29711" lon="3.01315">
        <ele>775</ele>
        <time>2012-09-20T15:09:05Z</time>
      </trkpt>
      <trkpt lat="44.29747" lon="3.01274">
        <ele>775</ele>
        <time>2012-09-20T15:09:44Z</time>
      </trkpt>
      <trkpt lat="44.29783" lon="3.01235">
        <ele>763</ele>
        <time>2012-09-20T15:10:31Z</time>
      </trkpt>
      <trkpt lat="44.29753" lon="3.01188">
        <ele>765</ele>
        <time>2012-09-20T15:11:53Z</time>
      </trkpt>
      <trkpt lat="44.29715" lon="3.01153">
        <ele>779</ele>
        <time>2012-09-20T15:12:43Z</time>
      </trkpt>
      <trkpt lat="44.29682" lon="3.0111">
        <ele>774</ele>
        <time>2012-09-20T15:14:03Z</time>
      </trkpt>
      <trkpt lat="44.29677" lon="3.01047">
        <ele>772</ele>
        <time>2012-09-20T15:15:02Z</time>
      </trkpt>
      <trkpt lat="44.29647" lon="3.01">
        <ele>781</ele>
        <time>2012-09-20T15:15:50Z</time>
      </trkpt>
      <trkpt lat="44.29611" lon="3.00963">
        <ele>788</ele>
        <time>2012-09-20T15:16:26Z</time>
      </trkpt>
      <trkpt lat="44.29652" lon="3.00934">
        <ele>784</ele>
        <time>2012-09-20T15:17:26Z</time>
      </trkpt>
      <trkpt lat="44.29696" lon="3.00914">
        <ele>791</ele>
        <time>2012-09-20T15:18:00Z</time>
      </trkpt>
      <trkpt lat="44.29741" lon="3.00903">
        <ele>791</ele>
        <time>2012-09-20T15:18:34Z</time>
      </trkpt>
      <trkpt lat="44.29786" lon="3.00901">
        <ele>783</ele>
        <time>2012-09-20T15:19:24Z</time>
      </trkpt>
      <trkpt lat="44.29827" lon="3.0093">
        <ele>779</ele>
        <time>2012-09-20T15:20:02Z</time>
      </trkpt>
      <trkpt lat="44.29872" lon="3.00935">
        <ele>772</ele>
        <time>2012-09-20T15:20:45Z</time>
      </trkpt>
      <trkpt lat="44.29917" lon="3.00932">
        <ele>779</ele>
        <time>2012-09-20T15:21:19Z</time>
      </trkpt>
      <trkpt lat="44.29962" lon="3.00946">
        <ele>779</ele>
        <time>2012-09-20T15:21:49Z</time>
      </trkpt>
      <trkpt lat="44.30003" lon="3.00976">
        <ele>778</ele>
        <time>2012-09-20T15:22:24Z</time>
      </trkpt>
      <trkpt lat="44.30048" lon="3.00978">
        <ele>769</ele>
        <time>2012-09-20T15:22:58Z</time>
      </trkpt>
      <trkpt lat="44.30094" lon="3.00978">
        <ele>768</ele>
        <time>2012-09-20T15:23:32Z</time>
      </trkpt>
      <trkpt lat="44.30143" lon="3.00982">
        <ele>769</ele>
        <time>2012-09-20T15:24:10Z</time>
      </trkpt>
      <trkpt lat="44.30182" lon="3.01015">
        <ele>775</ele>
        <time>2012-09-20T15:24:42Z</time>
      </trkpt>
      <trkpt lat="44.30226" lon="3.00996">
        <ele>770</ele>
        <time>2012-09-20T15:25:11Z</time>
      </trkpt>
      <trkpt lat="44.30272" lon="3.00997">
        <ele>761</ele>
        <time>2012-09-20T15:25:43Z</time>
      </trkpt>
      <trkpt lat="44.30315" lon="3.01015">
        <ele>751</ele>
        <time>2012-09-20T15:26:23Z</time>
      </trkpt>
      <trkpt lat="44.30362" lon="3.01014">
        <ele>754</ele>
        <time>2012-09-20T15:27:01Z</time>
      </trkpt>
      <trkpt lat="44.30402" lon="3.00984">
        <ele>750</ele>
        <time>2012-09-20T15:27:28Z</time>
      </trkpt>
      <trkpt lat="44.30444" lon="3.00956">
        <ele>742</ele>
        <time>2012-09-20T15:27:58Z</time>
      </trkpt>
      <trkpt lat="44.30484" lon="3.00923">
        <ele>741</ele>
        <time>2012-09-20T15:28:29Z</time>
      </trkpt>
      <trkpt lat="44.30524" lon="3.00896">
        <ele>742</ele>
        <time>2012-09-20T15:29:09Z</time>
      </trkpt>
      <trkpt lat="44.30558" lon="3.0085">
        <ele>734</ele>
        <time>2012-09-20T15:29:42Z</time>
      </trkpt>
      <trkpt lat="44.30599" lon="3.00824">
        <ele>736</ele>
        <time>2012-09-20T15:30:09Z</time>
      </trkpt>
      <trkpt lat="44.30641" lon="3.00788">
        <ele>735</ele>
        <time>2012-09-20T15:30:41Z</time>
      </trkpt>
      <trkpt lat="44.30677" lon="3.00749">
        <ele>722</ele>
        <time>2012-09-20T15:31:14Z</time>
      </trkpt>
      <trkpt lat="44.30715" lon="3.00714">
        <ele>719</ele>
        <time>2012-09-20T15:31:52Z</time>
      </trkpt>
      <trkpt lat="44.30759" lon="3.00699">
        <ele>716</ele>
        <time>2012-09-20T15:32:25Z</time>
      </trkpt>
      <trkpt lat="44.30801" lon="3.00671">
        <ele>711</ele>
        <time>2012-09-20T15:32:54Z</time>
      </trkpt>
      <trkpt lat="44.30836" lon="3.0063">
        <ele>709</ele>
        <time>2012-09-20T15:33:26Z</time>
      </trkpt>
      <trkpt lat="44.30872" lon="3.00589">
        <ele>703</ele>
        <time>2012-09-20T15:34:16Z</time>
      </trkpt>
      <trkpt lat="44.30909" lon="3.00547">
        <ele>703</ele>
        <time>2012-09-20T15:35:08Z</time>
      </trkpt>
      <trkpt lat="44.30918" lon="3.0061">
        <ele>699</ele>
        <time>2012-09-20T15:36:41Z</time>
      </trkpt>
      <trkpt lat="44.3091" lon="3.00673">
        <ele>698</ele>
        <time>2012-09-20T15:37:14Z</time>
      </trkpt>
      <trkpt lat="44.30908" lon="3.00736">
        <ele>690</ele>
        <time>2012-09-20T15:38:41Z</time>
      </trkpt>
      <trkpt lat="44.30943" lon="3.00779">
        <ele>689</ele>
        <time>2012-09-20T15:39:08Z</time>
      </trkpt>
      <trkpt lat="44.30962" lon="3.00836">
        <ele>686</ele>
        <time>2012-09-20T15:39:41Z</time>
      </trkpt>
      <trkpt lat="44.30979" lon="3.00896">
        <ele>683</ele>
        <time>2012-09-20T15:40:42Z</time>
      </trkpt>
      <trkpt lat="44.31005" lon="3.00951">
        <ele>678</ele>
        <time>2012-09-20T15:41:18Z</time>
      </trkpt>
      <trkpt lat="44.31033" lon="3.01001">
        <ele>675</ele>
        <time>2012-09-20T15:41:48Z</time>
      </trkpt>
      <trkpt lat="44.31065" lon="3.01047">
        <ele>674</ele>
        <time>2012-09-20T15:42:19Z</time>
      </trkpt>
      <trkpt lat="44.3109" lon="3.011">
        <ele>673</ele>
        <time>2012-09-20T15:42:52Z</time>
      </trkpt>
      <trkpt lat="44.31115" lon="3.01155">
        <ele>678</ele>
        <time>2012-09-20T15:43:26Z</time>
      </trkpt>
      <trkpt lat="44.31118" lon="3.01217">
        <ele>673</ele>
        <time>2012-09-20T15:44:29Z</time>
      </trkpt>
      <trkpt lat="44.3109" lon="3.01267">
        <ele>680</ele>
        <time>2012-09-20T15:45:13Z</time>
      </trkpt>
      <trkpt lat="44.3112" lon="3.01315">
        <ele>669</ele>
        <time>2012-09-20T15:48:10Z</time>
      </trkpt>
      <trkpt lat="44.31157" lon="3.01353">
        <ele>667</ele>
        <time>2012-09-20T15:48:46Z</time>
      </trkpt>
      <trkpt lat="44.31195" lon="3.01389">
        <ele>670</ele>
        <time>2012-09-20T15:49:22Z</time>
      </trkpt>
      <trkpt lat="44.31237" lon="3.01412">
        <ele>675</ele>
        <time>2012-09-20T15:50:02Z</time>
      </trkpt>
      <trkpt lat="44.31282" lon="3.01423">
        <ele>677</ele>
        <time>2012-09-20T15:50:33Z</time>
      </trkpt>
      <trkpt lat="44.31333" lon="3.01427">
        <ele>675</ele>
        <time>2012-09-20T15:51:15Z</time>
      </trkpt>
      <trkpt lat="44.31379" lon="3.01425">
        <ele>678</ele>
        <time>2012-09-20T15:51:53Z</time>
      </trkpt>
      <trkpt lat="44.31425" lon="3.01418">
        <ele>677</ele>
        <time>2012-09-20T15:52:31Z</time>
      </trkpt>
      <trkpt lat="44.3147" lon="3.01409">
        <ele>676</ele>
        <time>2012-09-20T15:53:02Z</time>
      </trkpt>
      <trkpt lat="44.31515" lon="3.01409">
        <ele>681</ele>
        <time>2012-09-20T15:55:24Z</time>
      </trkpt>
      <trkpt lat="44.3156" lon="3.01405">
        <ele>679</ele>
        <time>2012-09-20T15:56:03Z</time>
      </trkpt>
      <trkpt lat="44.31605" lon="3.01392">
        <ele>677</ele>
        <time>2012-09-20T15:56:36Z</time>
      </trkpt>
      <trkpt lat="44.3165" lon="3.01379">
        <ele>674</ele>
        <time>2012-09-20T15:57:13Z</time>
      </trkpt>
      <trkpt lat="44.31696" lon="3.01393">
        <ele>674</ele>
        <time>2012-09-20T15:57:50Z</time>
      </trkpt>
      <trkpt lat="44.3174" lon="3.01406">
        <ele>673</ele>
        <time>2012-09-20T15:58:23Z</time>
      </trkpt>
      <trkpt lat="44.31786" lon="3.01409">
        <ele>672</ele>
        <time>2012-09-20T15:58:54Z</time>
      </trkpt>
      <trkpt lat="44.31831" lon="3.01409">
        <ele>675</ele>
        <time>2012-09-20T15:59:38Z</time>
      </trkpt>
      <trkpt lat="44.3185" lon="3.01468">
        <ele>670</ele>
        <time>2012-09-20T16:00:13Z</time>
      </trkpt>
      <trkpt lat="44.31858" lon="3.0153">
        <ele>687</ele>
        <time>2012-09-20T16:00:52Z</time>
      </trkpt>
      <trkpt lat="44.31871" lon="3.01592">
        <ele>691</ele>
        <time>2012-09-20T16:01:23Z</time>
      </trkpt>
      <trkpt lat="44.31878" lon="3.01654">
        <ele>700</ele>
        <time>2012-09-20T16:01:54Z</time>
      </trkpt>
      <trkpt lat="44.31879" lon="3.01719">
        <ele>703</ele>
        <time>2012-09-20T16:02:28Z</time>
      </trkpt>
      <trkpt lat="44.31897" lon="3.01777">
        <ele>704</ele>
        <time>2012-09-20T16:02:58Z</time>
      </trkpt>
      <trkpt lat="44.31919" lon="3.01837">
        <ele>708</ele>
        <time>2012-09-20T16:03:36Z</time>
      </trkpt>
      <trkpt lat="44.31942" lon="3.01893">
        <ele>703</ele>
        <time>2012-09-20T16:04:05Z</time>
      </trkpt>
      <trkpt lat="44.31966" lon="3.01946">
        <ele>707</ele>
        <time>2012-09-20T16:04:38Z</time>
      </trkpt>
      <trkpt lat="44.31982" lon="3.02005">
        <ele>716</ele>
        <time>2012-09-20T16:05:15Z</time>
      </trkpt>
      <trkpt lat="44.31991" lon="3.02067">
        <ele>723</ele>
        <time>2012-09-20T16:05:44Z</time>
      </trkpt>
      <trkpt lat="44.3201" lon="3.02128">
        <ele>713</ele>
        <time>2012-09-20T16:06:18Z</time>
      </trkpt>
      <trkpt lat="44.3203" lon="3.02185">
        <ele>714</ele>
        <time>2012-09-20T16:06:48Z</time>
      </trkpt>
      <trkpt lat="44.32041" lon="3.0225">
        <ele>719</ele>
        <time>2012-09-20T16:07:20Z</time>
      </trkpt>
      <trkpt lat="44.32052" lon="3.02311">
        <ele>733</ele>
        <time>2012-09-20T16:07:56Z</time>
      </trkpt>
      <trkpt lat="44.32072" lon="3.02368">
        <ele>729</ele>
        <time>2012-09-20T16:08:34Z</time>
      </trkpt>
      <trkpt lat="44.32085" lon="3.02429">
        <ele>737</ele>
        <time>2012-09-20T16:09:07Z</time>
      </trkpt>
      <trkpt lat="44.32108" lon="3.02484">
        <ele>741</ele>
        <time>2012-09-20T16:09:37Z</time>
      </trkpt>
      <trkpt lat="44.32111" lon="3.02547">
        <ele>741</ele>
        <time>2012-09-20T16:10:09Z</time>
      </trkpt>
      <trkpt lat="44.32131" lon="3.02605">
        <ele>731</ele>
        <time>2012-09-20T16:10:40Z</time>
      </trkpt>
      <trkpt lat="44.32154" lon="3.02661">
        <ele>731</ele>
        <time>2012-09-20T16:11:10Z</time>
      </trkpt>
      <trkpt lat="44.32187" lon="3.02703">
        <ele>720</ele>
        <time>2012-09-20T16:11:37Z</time>
      </trkpt>
      <trkpt lat="44.32212" lon="3.02756">
        <ele>712</ele>
        <time>2012-09-20T16:12:12Z</time>
      </trkpt>
      <trkpt lat="44.32237" lon="3.02809">
        <ele>706</ele>
        <time>2012-09-20T16:12:53Z</time>
      </trkpt>
      <trkpt lat="44.32238" lon="3.02872">
        <ele>694</ele>
        <time>2012-09-20T16:13:23Z</time>
      </trkpt>
      <trkpt lat="44.32243" lon="3.02936">
        <ele>688</ele>
        <time>2012-09-20T16:13:54Z</time>
      </trkpt>
      <trkpt lat="44.32256" lon="3.02997">
        <ele>692</ele>
        <time>2012-09-20T16:14:34Z</time>
      </trkpt>
      <trkpt lat="44.32258" lon="3.0306">
        <ele>690</ele>
        <time>2012-09-20T16:15:00Z</time>
      </trkpt>
      <trkpt lat="44.32274" lon="3.03119">
        <ele>685</ele>
        <time>2012-09-20T16:15:32Z</time>
      </trkpt>
      <trkpt lat="44.32295" lon="3.03175">
        <ele>687</ele>
        <time>2012-09-20T16:15:59Z</time>
      </trkpt>
      <trkpt lat="44.32321" lon="3.03228">
        <ele>680</ele>
        <time>2012-09-20T16:16:30Z</time>
      </trkpt>
      <trkpt lat="44.32342" lon="3.03286">
        <ele>679</ele>
        <time>2012-09-20T16:16:57Z</time>
      </trkpt>
      <trkpt lat="44.32353" lon="3.03347">
        <ele>681</ele>
        <time>2012-09-20T16:17:29Z</time>
      </trkpt>
      <trkpt lat="44.32359" lon="3.0341">
        <ele>681</ele>
        <time>2012-09-20T16:18:02Z</time>
      </trkpt>
      <trkpt lat="44.32356" lon="3.03477">
        <ele>700</ele>
        <time>2012-09-20T16:18:42Z</time>
      </trkpt>
      <trkpt lat="44.32351" lon="3.03539">
        <ele>701</ele>
        <time>2012-09-20T16:19:07Z</time>
      </trkpt>
      <trkpt lat="44.3235" lon="3.03603">
        <ele>687</ele>
        <time>2012-09-20T16:19:36Z</time>
      </trkpt>
      <trkpt lat="44.32354" lon="3.03666">
        <ele>680</ele>
        <time>2012-09-20T16:20:07Z</time>
      </trkpt>
      <trkpt lat="44.32348" lon="3.03729">
        <ele>676</ele>
        <time>2012-09-20T16:20:37Z</time>
      </trkpt>
      <trkpt lat="44.32349" lon="3.03795">
        <ele>679</ele>
        <time>2012-09-20T16:21:10Z</time>
      </trkpt>
      <trkpt lat="44.32345" lon="3.03859">
        <ele>677</ele>
        <time>2012-09-20T16:21:42Z</time>
      </trkpt>
      <trkpt lat="44.32347" lon="3.03923">
        <ele>673</ele>
        <time>2012-09-20T16:22:07Z</time>
      </trkpt>
      <trkpt lat="44.32349" lon="3.03985">
        <ele>671</ele>
        <time>2012-09-20T16:22:40Z</time>
      </trkpt>
      <trkpt lat="44.32344" lon="3.04048">
        <ele>670</ele>
        <time>2012-09-20T16:23:07Z</time>
      </trkpt>
      <trkpt lat="44.32347" lon="3.04113">
        <ele>676</ele>
        <time>2012-09-20T16:23:38Z</time>
      </trkpt>
      <trkpt lat="44.32353" lon="3.04176">
        <ele>681</ele>
        <time>2012-09-20T16:24:10Z</time>
      </trkpt>
      <trkpt lat="44.32362" lon="3.04238">
        <ele>681</ele>
        <time>2012-09-20T16:24:37Z</time>
      </trkpt>
      <trkpt lat="44.3237" lon="3.043">
        <ele>676</ele>
        <time>2012-09-20T16:25:05Z</time>
      </trkpt>
      <trkpt lat="44.32366" lon="3.04365">
        <ele>670</ele>
        <time>2012-09-20T16:25:33Z</time>
      </trkpt>
      <trkpt lat="44.32378" lon="3.04426">
        <ele>667</ele>
        <time>2012-09-20T16:26:05Z</time>
      </trkpt>
      <trkpt lat="44.32422" lon="3.04409">
        <ele>665</ele>
        <time>2012-09-20T16:27:18Z</time>
      </trkpt>
      <trkpt lat="44.32467" lon="3.04403">
        <ele>668</ele>
        <time>2012-09-20T16:29:24Z</time>
      </trkpt>
      <trkpt lat="44.32497" lon="3.04355">
        <ele>667</ele>
        <time>2012-09-20T16:29:58Z</time>
      </trkpt>
      <trkpt lat="44.3252" lon="3.0441">
        <ele>671</ele>
        <time>2012-09-20T16:31:09Z</time>
      </trkpt>
      <trkpt lat="44.32549" lon="3.0446">
        <ele>668</ele>
        <time>2012-09-20T16:32:04Z</time>
      </trkpt>
      <trkpt lat="44.32556" lon="3.04522">
        <ele>665</ele>
        <time>2012-09-20T16:32:41Z</time>
      </trkpt>
      <trkpt lat="44.32598" lon="3.04546">
        <ele>661</ele>
        <time>2012-09-20T16:33:20Z</time>
      </trkpt>
      <trkpt lat="44.32644" lon="3.04576">
        <ele>663</ele>
        <time>2012-09-20T16:34:03Z</time>
      </trkpt>
      <trkpt lat="44.32689" lon="3.04582">
        <ele>664</ele>
        <time>2012-09-20T16:34:39Z</time>
      </trkpt>
      <trkpt lat="44.3269" lon="3.04538">
        <ele>666</ele>
        <time>2012-09-20T16:35:10Z</time>
      </trkpt>
      <trkpt lat="44.3269" lon="3.04538">
        <ele>665</ele>
        <time>2012-09-20T16:35:12Z</time>
      </trkpt>
    </trkseg>
  </trk>
</gpx>